Gray, TN

6:35 AM EDT on August 21, 2014 (GMT -0400)
Greyland Heights | Change Station
CLOSE
Current Station
Personal Weather Station
Location: Gray, TN
Elevation: 1509 ft
Nearby Weather Stations
Active Advisory: Special Statement

Elev 1509 ft 36.41 °N, 82.49 °W | Updated 33 seconds ago

Scattered Clouds
Scattered Clouds
64.6 °F
Feels Like 64.6 °F
N
0.0
Wind Variable Wind from SW
Gusts 0.0 mph

Today
High -- | Low -- °F
--% Chance of Precip.
Yesterday
High -- | Low -- °F
Precip. -- in
6:52 AM 8:12 PM
Waning Crescent, 15% visible
Pressure 30.17 in
Visibility 2.0 miles
Clouds Scattered Clouds 400 ft
Dew Point 64 °F
Humidity 99%
Rainfall 0.00 in
Snow Depth Not available.
UV 0 out of 12
Pollen 8.20 out of 12
Air Quality Not available.
Flu Activity Not available.
SPECI KTRI 211030Z 18003KT 2SM BR SCT004 19/17 A3017 RMK AO2 T01890172

More Conditions Fewer Conditions

Pressure 30.17 in
Visibility 2.0 miles
Clouds Scattered Clouds 400 ft
Dew Point 64 °F
Humidity 99%
Rainfall 0.00 in
Snow Depth Not available.
UV 0 out of 12
Pollen 8.20 out of 12
Air Quality Not available.
Flu Activity Not available.
SPECI KTRI 211030Z 18003KT 2SM BR SCT004 19/17 A3017 RMK AO2 T01890172

More Conditions Fewer Conditions

10-Day Weather Forecast

Almanac

Astronomy

Aug. 21, 2014 Rise Set
Actual Time 6:52 AM EDT 8:12 PM EDT
Civil Twilight 6:25 AM EDT 8:39 PM EDT
Nautical Twilight 5:53 AM EDT 9:11 PM EDT
Astronomical Twilight 5:19 AM EDT 9:45 PM EDT
Moon 3:24 AM EDT 5:38 PM EDT
Length of Visible Light 14h 14m
Length of Day
13h 20m
Tomorrow will be 2m 6s shorter.
Waning Crescent, 15% of the Moon is Illuminated
Today
Waning Crescent
Aug 25
New
Sep 2
First Quarter
Sep 8
Full
Sep 15
Last Quarter

Today's Extremes

State Highs State Lows

Community

WunderPhotos

Upload Photos

1,745,871 photos uploaded!

Nearby

Snow Depth

Station Depth Elevation
No new snow has been reported.

Earthquake Activity

City Distance Mag. Time & Date
No recent earthquake activity has been reported nearby.
Minimum magnitude displayed is 2.5.

Coastal Water Temperatures

Place Temperature
No Stations Reporting

Nearby Weather Stations